Time;durP1;ratioP1;P1;durP2;ratioP2;P2;SDS_P1;SDS_P2;PMS_P1;PMS_P2;Temp;Humidity;BMP_temperature;BMP_pressure;BME280_temperature;BME280_humidity;BME280_pressure;Samples;Min_cycle;Max_cycle;Signal;HPM_P1;HPM_P2
2020/12/16 00:02:25;;;;;;;25.07;18.40;;;8.40;99.90;;;;;;4907537;29;20187;-81
2020/12/16 00:04:51;;;;;;;25.10;18.23;;;8.40;99.90;;;;;;4908322;29;20190;-80
2020/12/16 00:07:19;;;;;;;27.13;19.30;;;8.30;99.90;;;;;;4895958;29;20182;-89
2020/12/16 00:09:45;;;;;;;27.07;16.93;;;8.30;99.90;;;;;;4921695;29;20191;-84
2020/12/16 00:12:25;;;;;;;27.83;18.07;;;8.30;99.90;;;;;;4922389;29;20178;-80
2020/12/16 00:14:57;;;;;;;29.00;18.77;;;8.30;99.90;;;;;;4921320;29;20170;-82
2020/12/16 00:17:26;;;;;;;28.00;17.83;;;8.40;99.90;;;;;;4919913;29;20205;-88
2020/12/16 00:19:52;;;;;;;26.33;17.07;;;8.40;99.90;;;;;;4918643;29;20151;-91
2020/12/16 00:22:18;;;;;;;26.23;18.03;;;8.40;99.90;;;;;;4916513;29;20159;-80
2020/12/16 00:24:44;;;;;;;27.20;17.43;;;8.50;99.90;;;;;;4916563;29;20191;-81
2020/12/16 00:27:10;;;;;;;28.27;17.07;;;8.60;99.90;;;;;;4913410;29;20171;-80
2020/12/16 00:29:38;;;;;;;27.13;17.37;;;8.60;99.90;;;;;;4909184;29;20170;-80
2020/12/16 00:32:06;;;;;;;25.47;16.37;;;8.60;99.90;;;;;;4912342;29;20177;-79
2020/12/16 00:34:32;;;;;;;26.70;18.43;;;8.50;99.90;;;;;;4915050;29;20214;-79
2020/12/16 00:36:58;;;;;;;23.57;17.10;;;8.50;99.90;;;;;;4914579;29;20210;-80
2020/12/16 00:39:25;;;;;;;23.13;16.50;;;8.50;99.90;;;;;;4912166;29;20178;-81
2020/12/16 00:41:51;;;;;;;22.60;16.77;;;8.50;99.90;;;;;;4906297;29;20170;-80
2020/12/16 00:44:17;;;;;;;25.73;17.00;;;8.50;99.90;;;;;;4906733;29;20218;-85
2020/12/16 00:46:43;;;;;;;24.93;16.17;;;8.50;99.90;;;;;;4908006;29;20269;-82
2020/12/16 00:49:09;;;;;;;25.03;16.50;;;8.50;99.90;;;;;;4907506;29;20216;-88
2020/12/16 00:51:34;;;;;;;22.47;15.87;;;8.50;99.90;;;;;;4907884;29;20197;-83
2020/12/16 00:54:00;;;;;;;26.07;16.43;;;8.50;99.90;;;;;;4908954;29;20198;-79
2020/12/16 00:56:26;;;;;;;23.80;15.87;;;8.60;99.90;;;;;;4908973;29;20198;-88
2020/12/16 00:58:51;;;;;;;23.10;15.63;;;8.60;99.90;;;;;;4903808;29;20178;-90
2020/12/16 01:01:17;;;;;;;20.80;14.37;;;8.60;99.90;;;;;;4902743;29;20592;-80
2020/12/16 01:03:46;;;;;;;24.07;15.10;;;8.60;99.90;;;;;;4903625;29;20249;-86
2020/12/16 01:06:12;;;;;;;22.33;15.47;;;8.60;99.90;;;;;;4886127;29;20202;-81
2020/12/16 01:08:41;;;;;;;22.47;16.10;;;8.70;99.90;;;;;;4904843;29;20178;-81
2020/12/16 01:11:08;;;;;;;21.60;14.67;;;8.70;99.90;;;;;;4907910;29;20198;-88
2020/12/16 01:13:34;;;;;;;23.57;15.87;;;8.70;99.90;;;;;;4907297;29;20667;-82
2020/12/16 01:16:00;;;;;;;24.17;15.50;;;8.70;99.90;;;;;;4888862;29;20186;-84
2020/12/16 01:18:26;;;;;;;22.90;16.17;;;8.70;99.90;;;;;;4904591;29;20202;-85
2020/12/16 01:20:52;;;;;;;21.27;15.53;;;8.70;99.90;;;;;;4905311;29;20170;-83
2020/12/16 01:23:18;;;;;;;19.73;14.20;;;8.70;99.90;;;;;;4910235;29;20178;-89
2020/12/16 01:25:43;;;;;;;21.57;15.13;;;8.70;99.90;;;;;;4907614;29;20230;-90
2020/12/16 01:28:18;;;;;;;22.13;15.20;;;8.60;99.90;;;;;;4905895;29;20574;-88
2020/12/16 01:30:43;;;;;;;20.03;14.70;;;8.70;99.90;;;;;;4903701;29;20257;-90
2020/12/16 01:33:09;;;;;;;23.27;14.90;;;8.70;99.90;;;;;;4904796;29;20170;-90
2020/12/16 01:35:35;;;;;;;23.47;15.20;;;8.70;99.90;;;;;;4907315;29;20221;-85
2020/12/16 01:38:01;;;;;;;22.30;15.17;;;8.80;99.90;;;;;;4910610;29;20198;-89
2020/12/16 01:40:26;;;;;;;23.20;15.47;;;8.90;99.90;;;;;;4913982;29;20674;-87
2020/12/16 01:42:52;;;;;;;22.13;15.80;;;8.90;99.90;;;;;;4912659;29;20510;-81
2020/12/16 01:45:23;;;;;;;21.30;15.93;;;9.00;99.90;;;;;;4914598;29;20182;-87
2020/12/16 01:47:50;;;;;;;20.83;15.97;;;9.10;99.90;;;;;;4915839;29;20202;-81
2020/12/16 01:50:16;;;;;;;22.10;15.33;;;9.10;99.90;;;;;;4921824;29;20143;-82
2020/12/16 01:52:42;;;;;;;24.23;15.83;;;9.00;99.90;;;;;;4921226;29;20175;-81
2020/12/16 01:55:10;;;;;;;22.37;14.87;;;9.10;99.90;;;;;;4924445;29;20252;-84
2020/12/16 01:57:45;;;;;;;21.03;15.50;;;9.10;99.90;;;;;;4923093;29;20191;-84
2020/12/16 02:00:12;;;;;;;20.73;15.03;;;9.10;99.90;;;;;;4923584;29;20181;-80
2020/12/16 02:02:48;;;;;;;23.53;15.80;;;9.20;99.90;;;;;;4923805;29;20163;-81
2020/12/16 02:05:18;;;;;;;22.40;15.80;;;9.30;99.90;;;;;;4923381;29;20188;-81
2020/12/16 02:07:45;;;;;;;24.83;16.07;;;9.20;99.90;;;;;;4917291;29;20178;-81
2020/12/16 02:10:12;;;;;;;22.07;15.90;;;9.20;99.90;;;;;;4912972;29;20158;-87
2020/12/16 02:12:38;;;;;;;24.47;16.43;;;9.30;99.90;;;;;;4906408;29;20198;-85
2020/12/16 02:15:07;;;;;;;23.87;15.27;;;9.30;99.90;;;;;;4904356;29;20287;-81
2020/12/16 02:17:33;;;;;;;21.53;14.93;;;9.10;99.90;;;;;;4907324;29;20290;-80
2020/12/16 02:20:03;;;;;;;21.47;14.97;;;9.10;99.90;;;;;;4892333;29;20178;-80
2020/12/16 02:22:29;;;;;;;21.10;15.10;;;9.10;99.90;;;;;;4915018;29;20207;-83
2020/12/16 02:25:13;;;;;;;23.67;15.60;;;9.10;99.90;;;;;;4917711;29;20155;-89
2020/12/16 02:27:41;;;;;;;22.13;14.47;;;9.00;99.90;;;;;;4911967;29;20171;-90
2020/12/16 02:30:10;;;;;;;23.53;14.87;;;8.90;99.90;;;;;;4899676;29;20175;-86
2020/12/16 02:32:45;;;;;;;21.83;14.37;;;8.90;99.90;;;;;;4885473;29;20171;-90
2020/12/16 02:35:13;;;;;;;21.23;14.70;;;8.90;99.90;;;;;;4886201;29;20592;-90
2020/12/16 02:37:39;;;;;;;18.97;14.13;;;9.00;99.90;;;;;;4887911;29;20709;-87
2020/12/16 02:40:05;;;;;;;21.07;14.50;;;8.90;99.90;;;;;;4884334;29;20211;-80
2020/12/16 02:42:31;;;;;;;18.53;13.97;;;8.70;99.90;;;;;;4883187;29;20191;-89
2020/12/16 02:44:57;;;;;;;19.50;13.63;;;8.70;99.90;;;;;;4884641;29;20186;-80
2020/12/16 02:47:24;;;;;;;16.60;13.30;;;8.70;99.90;;;;;;4902799;29;20210;-85
2020/12/16 02:49:50;;;;;;;17.80;14.00;;;8.60;99.90;;;;;;4905049;29;20167;-82
2020/12/16 02:52:15;;;;;;;18.03;13.50;;;8.60;99.90;;;;;;4898671;29;20202;-80
2020/12/16 02:54:41;;;;;;;17.23;12.73;;;8.70;99.90;;;;;;4896203;29;20179;-81
2020/12/16 02:57:07;;;;;;;21.17;14.57;;;8.80;99.90;;;;;;4898458;29;20213;-80
2020/12/16 02:59:36;;;;;;;18.40;13.37;;;8.80;99.90;;;;;;4890017;29;20223;-83
2020/12/16 03:02:03;;;;;;;18.17;13.37;;;8.90;99.90;;;;;;4888388;29;20215;-90
2020/12/16 03:04:32;;;;;;;17.30;11.63;;;9.00;99.90;;;;;;4889712;29;20171;-89
2020/12/16 03:06:58;;;;;;;16.97;12.43;;;8.90;99.90;;;;;;4887452;29;20179;-81
2020/12/16 03:09:27;;;;;;;16.30;11.67;;;8.90;99.90;;;;;;4891338;29;20181;-84
2020/12/16 03:11:54;;;;;;;17.90;11.80;;;8.90;99.90;;;;;;4889042;29;20616;-87
2020/12/16 03:14:20;;;;;;;13.90;11.53;;;8.90;99.90;;;;;;4898925;29;20171;-89
2020/12/16 03:16:46;;;;;;;14.57;11.13;;;8.90;99.90;;;;;;4901069;29;20255;-80
2020/12/16 03:19:12;;;;;;;14.43;10.77;;;8.90;99.90;;;;;;4903801;29;20187;-81
2020/12/16 03:21:38;;;;;;;14.37;9.73;;;8.90;99.90;;;;;;4905561;29;20187;-81
2020/12/16 03:24:03;;;;;;;12.13;9.57;;;9.00;99.90;;;;;;4905739;29;20159;-80
2020/12/16 03:26:29;;;;;;;15.50;9.70;;;9.00;99.90;;;;;;4904092;29;20534;-81
2020/12/16 03:28:56;;;;;;;17.30;9.93;;;9.00;99.90;;;;;;4901883;29;20719;-79
2020/12/16 03:31:21;;;;;;;13.57;10.00;;;9.00;99.90;;;;;;4898893;29;20215;-83
2020/12/16 03:33:53;;;;;;;11.80;8.83;;;9.10;99.90;;;;;;4890489;29;20174;-88
2020/12/16 03:36:20;;;;;;;14.37;9.20;;;9.30;99.90;;;;;;4893317;29;20245;-89
2020/12/16 03:38:50;;;;;;;12.60;9.50;;;9.30;99.90;;;;;;4890018;29;20231;-80
2020/12/16 03:41:17;;;;;;;11.37;9.00;;;9.30;99.90;;;;;;4877309;29;20187;-80
2020/12/16 03:43:47;;;;;;;14.70;9.40;;;9.30;99.90;;;;;;4892384;29;20247;-88
2020/12/16 03:46:13;;;;;;;12.30;9.03;;;9.30;99.90;;;;;;4893051;29;20198;-87
2020/12/16 03:48:40;;;;;;;11.97;8.17;;;9.10;99.90;;;;;;4887151;29;20194;-81
2020/12/16 03:51:08;;;;;;;12.60;8.50;;;9.00;99.90;;;;;;4869395;29;20246;-81
2020/12/16 03:53:35;;;;;;;12.87;7.43;;;8.90;99.90;;;;;;4885649;29;20182;-82
2020/12/16 03:56:05;;;;;;;11.37;7.47;;;8.90;99.90;;;;;;4885211;29;20230;-90
2020/12/16 03:58:30;;;;;;;13.17;7.47;;;8.80;99.90;;;;;;4885059;29;20254;-82
2020/12/16 04:00:56;;;;;;;13.00;7.83;;;8.70;99.90;;;;;;4890937;29;20199;-80
2020/12/16 04:03:22;;;;;;;9.53;7.37;;;8.60;99.90;;;;;;4898357;29;20171;-81
2020/12/16 04:05:48;;;;;;;9.90;7.20;;;8.60;99.90;;;;;;4898165;29;20171;-80
2020/12/16 04:08:13;;;;;;;9.10;7.47;;;8.60;99.90;;;;;;4893804;29;20203;-90
2020/12/16 04:10:39;;;;;;;12.30;7.83;;;8.60;99.90;;;;;;4886484;29;20640;-81
2020/12/16 04:13:05;;;;;;;12.57;7.87;;;8.50;99.90;;;;;;4886317;29;20193;-79
2020/12/16 04:15:30;;;;;;;13.50;7.87;;;8.50;99.90;;;;;;4888214;29;20227;-89
2020/12/16 04:17:56;;;;;;;10.57;7.30;;;8.60;99.90;;;;;;4887137;29;20254;-80
2020/12/16 04:20:21;;;;;;;12.97;8.60;;;8.60;99.90;;;;;;4886945;29;20182;-80
2020/12/16 04:22:47;;;;;;;11.07;7.70;;;8.70;99.90;;;;;;4884004;29;20207;-89
2020/12/16 04:25:13;;;;;;;13.77;8.30;;;8.70;99.90;;;;;;4889231;29;20175;-81
2020/12/16 04:27:39;;;;;;;12.87;7.73;;;8.70;99.90;;;;;;4902212;29;20167;-83
2020/12/16 04:30:05;;;;;;;12.30;7.77;;;8.50;99.90;;;;;;4900864;29;20198;-82
2020/12/16 04:32:31;;;;;;;12.87;8.27;;;8.40;99.90;;;;;;4903770;29;20230;-82
2020/12/16 04:34:56;;;;;;;11.80;8.20;;;8.40;99.90;;;;;;4903441;29;20182;-80
2020/12/16 04:37:22;;;;;;;11.57;7.97;;;8.40;99.90;;;;;;4900284;29;20247;-83
2020/12/16 04:39:49;;;;;;;12.77;8.73;;;8.40;99.90;;;;;;4893956;29;20523;-80
2020/12/16 04:42:14;;;;;;;12.00;8.17;;;8.40;99.90;;;;;;4887458;29;20216;-90
2020/12/16 04:44:40;;;;;;;13.20;9.73;;;8.40;99.90;;;;;;4884785;29;20179;-80
2020/12/16 04:47:07;;;;;;;11.17;8.63;;;8.30;99.90;;;;;;4884793;29;20194;-81
2020/12/16 04:49:32;;;;;;;13.00;8.80;;;8.30;99.90;;;;;;4883844;29;20175;-79
2020/12/16 04:51:59;;;;;;;12.40;9.33;;;8.30;99.90;;;;;;4868520;29;20194;-90
2020/12/16 04:54:25;;;;;;;15.60;9.73;;;8.30;99.90;;;;;;4884944;29;20179;-89
2020/12/16 04:56:52;;;;;;;12.67;9.37;;;8.30;99.90;;;;;;4884742;29;20230;-86
2020/12/16 04:59:19;;;;;;;14.33;10.00;;;8.20;99.90;;;;;;4889174;29;20174;-89
2020/12/16 05:01:44;;;;;;;15.20;9.90;;;8.30;99.90;;;;;;4893878;29;20175;-89
2020/12/16 05:04:10;;;;;;;16.10;10.57;;;8.20;99.90;;;;;;4891843;29;20183;-86
2020/12/16 05:06:37;;;;;;;12.77;9.97;;;8.10;99.90;;;;;;4895241;29;20620;-90
2020/12/16 05:09:11;;;;;;;14.53;10.60;;;8.00;99.90;;;;;;4894190;29;20213;-86
2020/12/16 05:11:51;;;;;;;13.93;11.20;;;7.90;99.90;;;;;;4893361;29;20247;-85
2020/12/16 05:14:19;;;;;;;18.20;12.33;;;7.70;99.90;;;;;;4878171;29;20227;-80
2020/12/16 05:17:05;;;;;;;18.73;12.93;;;7.70;99.90;;;;;;4882311;29;20578;-88
2020/12/16 05:19:42;;;;;;;19.17;13.10;;;7.60;99.90;;;;;;4881944;29;20167;-90
2020/12/16 05:22:20;;;;;;;16.83;13.10;;;7.60;99.90;;;;;;4879853;29;20182;-80
2020/12/16 05:24:48;;;;;;;17.70;13.73;;;7.60;99.90;;;;;;4886545;29;20186;-81
2020/12/16 05:27:17;;;;;;;19.97;13.53;;;7.70;99.90;;;;;;4881382;29;20266;-86
2020/12/16 05:29:45;;;;;;;19.83;12.57;;;7.70;99.90;;;;;;4870890;29;20282;-88
2020/12/16 05:32:16;;;;;;;21.57;12.10;;;7.80;99.90;;;;;;4889040;29;20198;-86
2020/12/16 05:34:41;;;;;;;16.20;11.60;;;7.80;99.90;;;;;;4891410;29;20190;-82
2020/12/16 05:37:28;;;;;;;19.60;12.47;;;7.80;99.90;;;;;;4889764;29;20203;-81
2020/12/16 05:40:01;;;;;;;14.87;11.40;;;7.80;99.90;;;;;;4886356;29;20183;-85
2020/12/16 05:42:28;;;;;;;15.93;11.93;;;7.90;99.90;;;;;;4883056;29;20202;-83
2020/12/16 05:44:58;;;;;;;22.40;12.23;;;7.90;99.90;;;;;;4866318;29;20183;-83
2020/12/16 05:47:25;;;;;;;16.37;12.13;;;8.00;99.90;;;;;;4883453;29;20220;-88
2020/12/16 05:49:50;;;;;;;14.03;11.10;;;8.10;99.90;;;;;;4886868;29;20175;-80
2020/12/16 05:52:17;;;;;;;16.23;10.70;;;8.20;99.90;;;;;;4887710;29;20729;-82
2020/12/16 05:54:48;;;;;;;15.47;11.47;;;8.30;99.90;;;;;;4881301;29;20616;-84
2020/12/16 05:57:29;;;;;;;14.53;12.33;;;8.40;99.90;;;;;;4891132;29;20222;-81
2020/12/16 06:00:07;;;;;;;13.90;10.83;;;8.50;99.90;;;;;;4892787;29;20213;-80
2020/12/16 06:02:36;;;;;;;16.13;11.40;;;8.50;99.90;;;;;;4886395;29;20636;-83
2020/12/16 06:05:06;;;;;;;16.43;11.03;;;8.60;99.90;;;;;;4888169;29;20179;-80
2020/12/16 06:07:32;;;;;;;17.53;10.67;;;8.50;99.90;;;;;;4892559;29;20159;-82
2020/12/16 06:09:59;;;;;;;15.40;10.93;;;8.60;99.90;;;;;;4885259;29;20534;-89
2020/12/16 06:12:28;;;;;;;18.47;11.60;;;8.70;99.90;;;;;;4880210;29;20273;-86
2020/12/16 06:15:10;;;;;;;14.80;10.23;;;8.80;99.90;;;;;;4884669;29;20632;-90
2020/12/16 06:17:38;;;;;;;16.50;10.53;;;8.60;99.90;;;;;;4886117;29;20214;-83
2020/12/16 06:20:06;;;;;;;14.70;10.10;;;8.70;99.90;;;;;;4897755;29;20175;-81
2020/12/16 06:22:34;;;;;;;12.03;9.67;;;8.70;99.90;;;;;;4895584;29;20202;-81
2020/12/16 06:25:04;;;;;;;14.73;9.47;;;8.60;99.90;;;;;;4887642;29;20227;-80
2020/12/16 06:27:37;;;;;;;12.83;9.33;;;8.50;99.90;;;;;;4884463;29;20175;-80
2020/12/16 06:30:06;;;;;;;13.90;9.60;;;8.50;99.90;;;;;;4883789;29;20176;-85
2020/12/16 06:32:40;;;;;;;13.07;9.53;;;8.50;99.90;;;;;;4881268;29;20266;-87
2020/12/16 06:35:07;;;;;;;11.03;8.57;;;8.50;99.90;;;;;;4886784;29;20182;-82
2020/12/16 06:37:33;;;;;;;13.13;9.00;;;8.50;99.90;;;;;;4890280;29;20294;-83
2020/12/16 06:39:58;;;;;;;12.10;8.30;;;8.50;99.90;;;;;;4886127;29;20263;-85
2020/12/16 06:42:32;;;;;;;11.47;8.70;;;8.60;99.90;;;;;;4884417;29;20183;-92
2020/12/16 06:45:16;;;;;;;10.60;8.20;;;8.80;99.90;;;;;;4870727;29;20655;-82
2020/12/16 06:47:45;;;;;;;12.13;7.93;;;8.70;99.90;;;;;;4885226;29;20199;-87
2020/12/16 06:50:21;;;;;;;11.70;7.10;;;8.60;99.90;;;;;;4882964;29;20182;-82
2020/12/16 06:52:47;;;;;;;12.00;8.13;;;8.60;99.90;;;;;;4884991;29;20178;-90
2020/12/16 06:55:14;;;;;;;10.97;7.40;;;8.70;99.90;;;;;;4887115;29;20175;-86
2020/12/16 06:57:50;;;;;;;8.33;6.70;;;8.80;99.90;;;;;;4884129;29;20275;-85
2020/12/16 07:00:21;;;;;;;10.10;7.13;;;8.90;99.90;;;;;;4900333;29;20700;-86
2020/12/16 07:02:48;;;;;;;11.10;6.63;;;8.80;99.90;;;;;;4885084;29;20669;-82
2020/12/16 07:05:37;;;;;;;9.40;6.83;;;8.80;99.90;;;;;;4901576;29;20257;-86
2020/12/16 07:08:04;;;;;;;10.23;6.40;;;8.90;99.90;;;;;;4903581;29;20174;-82
2020/12/16 07:10:41;;;;;;;7.83;6.23;;;9.00;99.90;;;;;;4905815;29;20174;-93
2020/12/16 07:13:29;;;;;;;9.30;6.57;;;9.00;99.90;;;;;;4902544;29;20273;-92
2020/12/16 07:15:57;;;;;;;10.80;7.27;;;9.00;99.90;;;;;;4907804;29;20234;-87
2020/12/16 07:18:38;;;;;;;9.50;6.20;;;9.00;99.90;;;;;;4907404;29;20221;-85
2020/12/16 07:21:14;;;;;;;12.97;6.67;;;9.00;99.90;;;;;;4904622;29;20175;-86
2020/12/16 07:23:51;;;;;;;12.80;7.43;;;9.00;99.90;;;;;;4904005;29;20199;-78
2020/12/16 07:26:19;;;;;;;10.30;6.10;;;9.00;99.90;;;;;;4902693;29;20243;-79
2020/12/16 07:28:45;;;;;;;11.70;6.47;;;9.00;99.90;;;;;;4905568;29;20267;-91
2020/12/16 07:31:11;;;;;;;9.37;6.47;;;8.90;99.90;;;;;;4906863;29;20210;-80
2020/12/16 07:33:37;;;;;;;8.90;6.70;;;9.10;99.90;;;;;;4907197;29;20178;-87
2020/12/16 07:36:04;;;;;;;13.33;7.10;;;8.90;99.90;;;;;;4910871;29;20181;-81
2020/12/16 07:38:31;;;;;;;10.30;6.30;;;8.80;99.90;;;;;;4922765;29;20212;-83
2020/12/16 07:40:56;;;;;;;9.43;5.70;;;8.70;99.90;;;;;;4922054;29;20217;-80
2020/12/16 07:43:23;;;;;;;10.90;6.37;;;8.70;99.90;;;;;;4919310;29;20174;-80
2020/12/16 07:46:06;;;;;;;11.10;7.33;;;8.50;99.90;;;;;;4900354;29;20199;-82
2020/12/16 07:48:34;;;;;;;10.00;6.63;;;8.90;99.90;;;;;;4900569;29;20187;-85
2020/12/16 07:51:07;;;;;;;8.07;6.13;;;8.70;99.90;;;;;;4889007;29;20257;-87
2020/12/16 07:53:47;;;;;;;8.77;5.73;;;8.70;99.90;;;;;;4902275;29;20619;-81
2020/12/16 07:56:28;;;;;;;8.63;5.67;;;8.80;99.90;;;;;;4902568;29;20254;-85
2020/12/16 07:58:54;;;;;;;9.50;6.37;;;8.80;99.90;;;;;;4900800;29;20635;-83
2020/12/16 08:01:20;;;;;;;10.63;5.07;;;8.80;99.90;;;;;;4901157;29;20192;-86
2020/12/16 08:03:48;;;;;;;9.00;4.70;;;8.70;99.90;;;;;;4900477;29;20702;-82
2020/12/16 08:06:15;;;;;;;9.57;5.37;;;8.80;99.90;;;;;;4885803;29;20562;-82
2020/12/16 08:08:52;;;;;;;8.23;5.40;;;8.80;99.90;;;;;;4900398;29;20214;-85
2020/12/16 08:11:26;;;;;;;7.20;4.97;;;8.80;99.90;;;;;;4888566;29;20670;-83
2020/12/16 08:14:01;;;;;;;7.20;4.90;;;8.70;99.90;;;;;;4899933;29;20204;-82
2020/12/16 08:16:26;;;;;;;9.90;5.50;;;9.00;99.90;;;;;;4904104;29;20182;-82
2020/12/16 08:18:52;;;;;;;5.97;4.93;;;8.80;99.90;;;;;;4903148;29;20200;-83
2020/12/16 08:21:20;;;;;;;9.33;5.67;;;8.80;99.90;;;;;;4903256;29;20239;-85
2020/12/16 08:23:48;;;;;;;9.20;5.50;;;8.90;99.90;;;;;;4902232;29;20190;-85
2020/12/16 08:26:17;;;;;;;9.43;5.70;;;8.90;99.90;;;;;;4915475;29;20742;-83
2020/12/16 08:32:17;;;;;;;11.47;5.97;;;9.10;99.90;;;;;;4918244;29;20169;-83
2020/12/16 08:34:46;;;;;;;8.07;5.40;;;9.20;99.90;;;;;;4920599;29;20196;-83
2020/12/16 08:37:14;;;;;;;6.80;5.47;;;9.30;99.90;;;;;;4917672;29;20233;-84
2020/12/16 08:39:44;;;;;;;7.93;5.53;;;9.20;99.90;;;;;;4917444;29;20174;-82
2020/12/16 08:42:24;;;;;;;8.53;5.90;;;9.20;99.90;;;;;;4917456;29;20206;-80
2020/12/16 08:45:06;;;;;;;7.27;5.37;;;9.20;99.90;;;;;;4898474;29;20234;-80
2020/12/16 08:47:36;;;;;;;12.03;6.13;;;9.20;99.90;;;;;;4900272;29;20179;-81
2020/12/16 08:50:12;;;;;;;9.67;6.23;;;9.20;99.90;;;;;;4891801;29;20182;-84
2020/12/16 08:52:39;;;;;;;8.57;6.00;;;9.30;99.90;;;;;;4890367;29;20274;-81
2020/12/16 08:55:15;;;;;;;10.13;6.60;;;9.50;99.90;;;;;;4895861;29;20194;-83
2020/12/16 08:57:59;;;;;;;8.00;6.10;;;9.60;99.90;;;;;;4891118;29;20217;-86
2020/12/16 09:00:43;;;;;;;6.17;5.17;;;9.60;99.90;;;;;;4884827;29;20171;-85
2020/12/16 09:03:12;;;;;;;6.20;4.70;;;9.70;99.90;;;;;;4906261;29;20251;-81
2020/12/16 09:05:41;;;;;;;6.87;5.77;;;9.90;99.90;;;;;;4901686;29;20189;-83
2020/12/16 09:08:09;;;;;;;7.10;5.03;;;9.90;99.90;;;;;;4898407;29;20209;-82
2020/12/16 09:10:37;;;;;;;8.50;5.90;;;10.10;99.90;;;;;;4903011;29;20185;-84
2020/12/16 09:13:09;;;;;;;6.47;4.60;;;10.20;99.90;;;;;;4913815;29;20234;-80
2020/12/16 09:15:35;;;;;;;5.87;4.80;;;10.20;99.90;;;;;;4905088;29;20182;-83
2020/12/16 09:18:00;;;;;;;11.43;7.90;;;10.20;99.90;;;;;;4897746;29;20282;-82
2020/12/16 09:20:27;;;;;;;35.63;19.57;;;10.20;99.90;;;;;;4884099;29;20179;-83
2020/12/16 09:22:58;;;;;;;14.07;7.90;;;10.20;99.90;;;;;;4895412;29;20182;-81
2020/12/16 09:25:24;;;;;;;21.63;11.50;;;10.20;99.90;;;;;;4890018;29;20656;-82
2020/12/16 09:27:51;;;;;;;10.60;5.43;;;10.30;99.90;;;;;;4888391;29;20238;-82
2020/12/16 09:30:33;;;;;;;24.00;10.13;;;10.20;99.90;;;;;;4902623;29;20631;-81
2020/12/16 09:33:13;;;;;;;7.37;5.23;;;10.40;99.90;;;;;;4898652;29;20174;-81
2020/12/16 09:35:42;;;;;;;33.50;14.50;;;10.40;99.90;;;;;;4905106;29;20243;-77
2020/12/16 09:38:16;;;;;;;8.63;5.10;;;10.60;99.90;;;;;;4899316;29;20300;-77
2020/12/16 09:40:42;;;;;;;46.90;22.23;;;10.70;99.90;;;;;;4884710;29;20649;-78
2020/12/16 09:43:10;;;;;;;15.63;9.60;;;10.80;99.90;;;;;;4888821;29;20255;-79
2020/12/16 09:45:39;;;;;;;10.27;5.20;;;10.80;99.90;;;;;;4889918;29;20181;-81
2020/12/16 09:48:06;;;;;;;12.47;8.30;;;10.90;99.90;;;;;;4894911;29;20189;-81
2020/12/16 09:50:34;;;;;;;17.93;10.50;;;10.90;99.90;;;;;;4881781;29;20215;-80
2020/12/16 09:53:03;;;;;;;9.13;6.53;;;10.80;99.90;;;;;;4893033;29;20222;-80
2020/12/16 09:55:30;;;;;;;6.90;4.67;;;10.70;99.90;;;;;;4893201;29;20242;-79
2020/12/16 09:58:05;;;;;;;7.93;5.20;;;10.80;99.90;;;;;;4900572;29;20628;-79
2020/12/16 10:00:32;;;;;;;7.10;4.90;;;10.90;99.90;;;;;;4899767;29;20650;-79
2020/12/16 10:03:00;;;;;;;12.97;6.27;;;10.90;99.90;;;;;;4896515;29;20269;-78
2020/12/16 10:05:26;;;;;;;9.03;6.40;;;11.10;99.90;;;;;;4893169;29;20196;-78
2020/12/16 10:07:52;;;;;;;6.67;4.33;;;11.40;99.90;;;;;;4900165;29;20257;-79
2020/12/16 10:10:19;;;;;;;5.07;3.73;;;11.50;99.90;;;;;;4909657;29;20166;-81
2020/12/16 10:12:45;;;;;;;6.93;4.13;;;11.60;99.90;;;;;;4888097;29;20201;-81
2020/12/16 10:15:10;;;;;;;7.10;3.87;;;11.50;99.90;;;;;;4903527;29;20238;-78
2020/12/16 10:17:36;;;;;;;5.57;4.07;;;11.60;99.90;;;;;;4890999;29;20249;-79
2020/12/16 10:20:06;;;;;;;4.93;4.00;;;11.60;99.90;;;;;;4918302;29;20189;-78
2020/12/16 10:22:32;;;;;;;6.07;4.47;;;11.50;99.90;;;;;;4923405;29;20184;-77
2020/12/16 10:24:59;;;;;;;7.03;4.67;;;11.50;99.90;;;;;;4924787;29;20249;-77
2020/12/16 10:27:28;;;;;;;9.93;5.00;;;11.60;99.90;;;;;;4921168;29;20178;-78
2020/12/16 10:29:56;;;;;;;8.77;6.80;;;11.60;99.90;;;;;;4920895;29;20166;-80
2020/12/16 10:32:22;;;;;;;14.43;9.67;;;11.60;99.90;;;;;;4903599;29;20194;-78
2020/12/16 10:34:51;;;;;;;7.63;5.20;;;11.60;99.90;;;;;;4894607;29;20186;-79
2020/12/16 10:37:17;;;;;;;6.70;3.73;;;11.70;99.90;;;;;;4893668;29;20210;-79
2020/12/16 10:39:43;;;;;;;6.93;4.57;;;11.70;99.90;;;;;;4899413;29;20182;-79
2020/12/16 10:42:08;;;;;;;8.07;4.57;;;11.90;99.90;;;;;;4898648;29;20666;-78
2020/12/16 10:44:34;;;;;;;6.43;3.57;;;11.90;99.90;;;;;;4895208;29;20209;-79
2020/12/16 10:46:59;;;;;;;5.57;3.33;;;11.80;99.90;;;;;;4885058;29;20203;-78
2020/12/16 10:49:26;;;;;;;7.27;3.93;;;11.80;99.90;;;;;;4881612;29;20699;-79
2020/12/16 10:51:53;;;;;;;4.90;3.37;;;11.80;99.90;;;;;;4882273;29;20187;-78
2020/12/16 10:54:20;;;;;;;5.93;3.60;;;11.70;99.90;;;;;;4897710;29;20203;-79
2020/12/16 10:56:53;;;;;;;6.87;4.53;;;11.80;99.90;;;;;;4901018;29;20285;-79
2020/12/16 10:59:20;;;;;;;7.27;4.50;;;11.80;99.90;;;;;;4900368;29;20513;-76
2020/12/16 11:01:47;;;;;;;4.97;3.33;;;11.80;99.90;;;;;;4883909;29;20191;-77
2020/12/16 11:04:12;;;;;;;4.43;3.33;;;11.90;99.90;;;;;;4881943;29;20179;-79
2020/12/16 11:06:44;;;;;;;7.20;4.30;;;12.00;99.90;;;;;;4881930;29;20186;-79
2020/12/16 11:09:10;;;;;;;6.30;4.10;;;12.00;99.90;;;;;;4880118;29;20163;-80
2020/12/16 11:11:43;;;;;;;5.00;4.23;;;12.00;99.90;;;;;;4898373;29;20174;-77
2020/12/16 11:14:09;;;;;;;6.53;3.53;;;12.10;99.90;;;;;;4900694;29;20162;-79
2020/12/16 11:16:35;;;;;;;5.20;3.57;;;12.10;99.90;;;;;;4901091;29;20222;-81
2020/12/16 11:19:00;;;;;;;5.90;3.70;;;12.00;99.90;;;;;;4902050;29;20513;-80
2020/12/16 11:21:27;;;;;;;6.53;4.20;;;11.90;99.90;;;;;;4901180;29;20178;-80
2020/12/16 11:23:53;;;;;;;6.10;4.57;;;11.90;99.90;;;;;;4901768;29;20175;-79
2020/12/16 11:26:18;;;;;;;5.97;4.20;;;11.90;99.90;;;;;;4902672;29;20528;-80
2020/12/16 11:28:44;;;;;;;7.10;4.00;;;12.00;99.90;;;;;;4900468;29;20178;-80
2020/12/16 11:31:10;;;;;;;6.10;4.77;;;11.90;99.90;;;;;;4900807;29;20633;-81
2020/12/16 11:33:36;;;;;;;6.70;4.70;;;11.80;99.90;;;;;;4900951;29;20182;-82
2020/12/16 11:36:02;;;;;;;6.20;4.63;;;11.80;99.90;;;;;;4896860;29;20185;-79
2020/12/16 11:38:27;;;;;;;5.90;4.07;;;11.70;99.90;;;;;;4901426;29;20206;-82
2020/12/16 11:40:53;;;;;;;6.80;4.23;;;11.80;99.90;;;;;;4900527;29;20706;-81
2020/12/16 11:43:18;;;;;;;7.70;4.80;;;11.80;99.90;;;;;;4900509;29;20182;-81
2020/12/16 11:45:45;;;;;;;6.03;4.20;;;11.70;99.90;;;;;;4900556;29;20259;-81
2020/12/16 11:48:11;;;;;;;5.77;4.40;;;11.90;99.90;;;;;;4901508;29;20175;-80
2020/12/16 11:50:37;;;;;;;5.17;4.10;;;12.00;99.90;;;;;;4900589;29;20560;-79
2020/12/16 11:53:02;;;;;;;7.53;5.10;;;12.00;99.90;;;;;;4904379;29;20174;-77
2020/12/16 11:55:28;;;;;;;9.17;7.37;;;11.90;99.90;;;;;;4899285;29;20174;-77
2020/12/16 11:57:54;;;;;;;7.43;5.57;;;11.80;99.90;;;;;;4900033;29;20206;-77
2020/12/16 12:00:20;;;;;;;5.70;4.67;;;11.90;99.90;;;;;;4899833;29;20274;-78
2020/12/16 12:02:46;;;;;;;7.30;4.93;;;12.00;99.90;;;;;;4897491;29;20635;-78
2020/12/16 12:05:13;;;;;;;7.20;4.90;;;12.20;99.90;;;;;;4897960;29;20253;-81
2020/12/16 12:07:39;;;;;;;6.70;5.80;;;12.40;99.90;;;;;;4897821;29;20541;-79
2020/12/16 12:10:05;;;;;;;6.37;4.83;;;12.40;99.90;;;;;;4900316;29;20182;-78
2020/12/16 12:12:31;;;;;;;7.83;5.17;;;12.60;99.90;;;;;;4900839;29;20212;-80
2020/12/16 12:14:56;;;;;;;7.27;5.33;;;12.70;99.90;;;;;;4900801;29;20213;-81
2020/12/16 12:17:22;;;;;;;5.87;4.80;;;12.70;99.90;;;;;;4900930;29;20581;-79
2020/12/16 12:19:48;;;;;;;7.47;4.80;;;12.80;99.90;;;;;;4903802;29;20735;-80
2020/12/16 12:22:14;;;;;;;8.63;4.57;;;12.80;99.90;;;;;;4907530;29;20175;-79
2020/12/16 12:24:40;;;;;;;5.90;4.53;;;12.80;99.90;;;;;;4899161;29;20179;-80
2020/12/16 12:27:06;;;;;;;10.07;4.80;;;12.90;99.90;;;;;;4908428;29;20173;-79
2020/12/16 12:29:32;;;;;;;9.10;4.87;;;12.70;99.90;;;;;;4922207;29;20190;-79
2020/12/16 12:31:58;;;;;;;6.87;4.40;;;12.80;99.90;;;;;;4921446;29;20193;-81
2020/12/16 12:34:24;;;;;;;8.67;4.77;;;12.80;99.90;;;;;;4916768;29;20163;-78
2020/12/16 12:36:50;;;;;;;7.33;4.70;;;12.70;99.90;;;;;;4908412;29;20194;-79
2020/12/16 12:39:16;;;;;;;7.40;4.63;;;12.80;99.90;;;;;;4911585;29;20182;-78
2020/12/16 12:41:44;;;;;;;8.93;4.93;;;12.80;99.90;;;;;;4911625;29;20263;-77
2020/12/16 12:44:11;;;;;;;6.57;4.83;;;13.00;99.90;;;;;;4910778;29;20185;-77
2020/12/16 12:46:37;;;;;;;7.77;5.13;;;13.20;99.90;;;;;;4912968;29;20190;-77
2020/12/16 12:49:03;;;;;;;6.63;4.43;;;13.30;99.90;;;;;;4906227;29;20174;-81
2020/12/16 12:51:30;;;;;;;8.47;4.40;;;13.40;99.90;;;;;;4905382;29;20210;-76
2020/12/16 12:53:57;;;;;;;9.00;4.93;;;13.40;99.90;;;;;;4909536;29;20250;-79